Florida AWOS List, Phone Numbers

USA |  
| Search AWOS

Rocky Mountain States: Montana | Wyoming | Colorado | New Mexico

Complete weather reports: Florida

Legend: KFNL = METAR available Follow your local AWOS on AV Mobile = METAR available on AV Mobile
Station Florida Location Frequency Phone
KAQQICAO ID KAQQ Apalachicola, Apalachicola
KAAFFAA ID AAF, ASOS, KAAF 270253Z AUTO 33004KT 10SM CLR 09/03 A3003 Follow KAAF on AV Mobile APALACHICOLA MUNICIPAL AIRPORT 119.925 850-653-8271
KNAEICAO ID KNAE Astor, Bombing Range Detachment Astor
KAVOFAA ID AVO, AWOS-3 AVON PARK 118.725 863-453-4223
KAGRFAA ID AGR Avon Park Gunnery Range
KBOWFAA ID BOW, AWOS-3, KBOW 270255Z AUTO 28007KT 10SM FEW031 12/08 A2997 RMK AO2 Follow KBOW on AV Mobile Bartow Municipal 123.775 863-533-9004
F95FAA ID F95, AWOS-AV, K2V5 270330Z AUTO 24003KT 10SM CLR 05/00 A3014 RMK AO2 T00451004 Follow  on AV Mobile BLOUNTSTOWN 119.350 850-674-1347
KBCTFAA ID BCT, AWOS-3, KBCT 270247Z 28008KT 10SM SCT030 16/09 A2996 Follow KBCT on AV Mobile Boca Raton, Boca Raton Airport 121.125 561-391-2696
K1J0FAA ID 1J0, K1J0 270258Z AUTO 00000KT 10SM CLR 04/02 A3001 RMK AO2 SLP146 T00440022 58002 Follow K1J0 on AV Mobile TRI COUNTY AIRPORT
KBKVFAA ID BKV, ASOS, KBKV 270253Z AUTO 30011KT 10SM SCT035 13/07 A2998 RMK AO2 SLP152 T01280067 53015 Follow KBKV on AV Mobile BROOKSVILLE HERNANDO CO AIRPORT 134.725 352-799-5881
K1J4ICAO ID K1J4 Cape San Blas Coast Guard Station
KNZCICAO ID KNZC Cecil, Naval Air Station
2ISFAA ID 2IS, AWOS-3, K2V5 270330Z AUTO 24003KT 10SM CLR 05/00 A3014 RMK AO2 T00451004 Follow  on AV Mobile CLEWISTON 124.175 863-983-7020
KX53ICAO ID KX53 Clewiston
KCOFFAA ID COF, KCOF 270258Z AUTO 29015KT 10SM CLR 13/08 A2993 RMK AO2 SLP140 T01260079 52014 CHINO RWY02 $ Follow KCOF on AV Mobile Cocoa / Patrick Air Force Base
KXMRFAA ID XMR, KXMR 270258Z AUTO 28013G18KT 10SM CLR 12/07 A2992 RMK AO2 SLP135 T01210072 51017 Follow KXMR on AV Mobile Cocoa Beach, Cape Canaveral Air Force Station Skid Strip
KCEWFAA ID CEW, ASOS, KCEW 270253Z AUTO 00000KT 10SM CLR 05/01 A3003 Follow KCEW on AV Mobile CRESTVIEW SIKES AIRPORT 119.275 850-682-1237
KEGIFAA ID EGI, KEGI 270258Z 00000KT 10SM CLR 03/01 A3002 RMK AO2A SLPNO T00330007 50000 $ Follow KEGI on AV Mobile Duke Field / Eglin Auxiliary
KCTYFAA ID CTY, KCTY 270253Z AUTO 29003KT 07/03 A2999 Follow KCTY on AV Mobile CROSS CITY AIRPORT
KCGCFAA ID CGC, AWOS-3, KCGC 270255Z AUTO 32008KT 10SM SCT037 12/05 A2998 RMK AO2 Follow KCGC on AV Mobile CRYSTAL RIVER 118.325 352-563-6600
KDABFAA ID DAB, ASOS, KDAB 270253Z 27009KT 10SM CLR 11/05 A2992 Follow KDAB on AV Mobile DAYTONA BEACH INTERNATIONAL 386-253-7469
54JFAA ID 54J, AWOS-3P, K2V5 270330Z AUTO 24003KT 10SM CLR 05/00 A3014 RMK AO2 T00451004 Follow  on AV Mobile DEFUNIAK SPRINGS 118.725 850-892-0147
KDEDFAA ID DED, AWOS-3, KDED 270255Z AUTO 28007KT 10SM CLR A2994 RMK AO1 Follow KDED on AV Mobile DELAND 119.575 386-740-5811
KDTSFAA ID DTS, ASOS, KDTS 270253Z AUTO 00000KT 10SM CLR 09/02 A3004 RMK AO2 SLP170 T00890022 51006 TSNO Follow KDTS on AV Mobile DESTIN-FT WALTON BEACH AIRPORT 133.925 850-654-7128
KX91ICAO ID KX91 Egmont Key Coast Guard Station
KFHBFAA ID FHB, AWOS-3, KFHB 270255Z AUTO 29015G21KT 10SM BKN040 12/02 A2989 RMK AO1 Follow KFHB on AV Mobile FERNANDINA BEACH 118.075 904-277-7323
KFXEFAA ID FXE, ASOS, KFXE 270253Z 27008KT 10SM CLR 15/09 A2996 Follow KFXE on AV Mobile FORT LAUDERDALE EXECUTIVE 954-772-2537
KFLLFAA ID FLL, ASOS, KFLL 270253Z 29008KT 10SM SCT044 16/09 A2996 Follow KFLL on AV Mobile FORT LAUDERDALE/HOLLYWOOD 954-359-7857
KFMYFAA ID FMY, ASOS, KFMY 270253Z 30009KT 10SM BKN039 16/09 A2997 RMK AO2 SLP150 T01610089 51014 Follow KFMY on AV Mobile FORT MYERS PAGE FIELD 239-936-2318
KRSWFAA ID RSW, ASOS, KRSW 270253Z 30009KT 10SM CLR 16/08 A2997 Follow KRSW on AV Mobile FORT MYERS SW FL INTERNATIONAL AIRPORT 239-561-0966
KX82ICAO ID KX82 Fort Pierce Coast Guard Station
KFPRFAA ID FPR, ASOS, KFPR 270253Z AUTO 28006KT 10SM CLR 11/08 A2993 Follow KFPR on AV Mobile FORT PIERCE ST LUCIE 772-489-4281
KX86ICAO ID KX86 Fowey Rocks Coast Guard Station
KX89ICAO ID KX89 Ft. Myers Beach Coast Guard Station
KGNVFAA ID GNV, ASOS, KGNV 270253Z 31009KT 10SM CLR 08/02 A2996 Follow KGNV on AV Mobile GAINESVILLE REGIONAL AIRPORT 352-335-8672
KHWOFAA ID HWO, ASOS, KHWO 270253Z AUTO 28009KT 10SM SCT042 16/09 A2998 RMK AO2 SLP151 T01610094 51016 Follow KHWO on AV Mobile HOLLYWOOD NORTH PERRY AIRPORT 954-983-5904
X51FAA ID X51, AWOS-3, K2V5 270330Z AUTO 24003KT 10SM CLR 05/00 A3014 RMK AO2 T00451004 Follow  on AV Mobile HOMESTEAD 118.375 (305) 247-2791
KHSTFAA ID HST, KHST 270258Z AUTO 26006KT 10SM BKN047 14/10 A2998 RMK AO2 SLP155 T01400098 52014 Follow KHST on AV Mobile Homestead Air Force Base
KIMMFAA ID IMM, AWOS-3, KIMM 270255Z AUTO 00000KT 7SM CLR 12/12 A2998 RMK A01 P000 Follow KIMM on AV Mobile IMMOKALEE 118.525 239-657-2038
KINFFAA ID INF, AWOS-3, KINF 270255Z AUTO 00000KT 10SM SCT037 07/06 A2998 RMK AO2 Follow KINF on AV Mobile INVERNESS 119.975 352-341-0264
KX84ICAO ID KX84 Islamorada Coast Guard Station
KHEGFAA ID HEG, AWOS-3 JACKSONVILLE 119.275 904-695-0334
KCRGFAA ID CRG, ASOS, KCRG 270253Z 30012G24KT 10SM CLR 09/02 A2991 RMK AO2 SLP128 T00940017 51010 Follow KCRG on AV Mobile JACKSONVILLE CRAIG MUN 904-646-4670
KJAXFAA ID JAX, ASOS, KJAX 270256Z 30014G21KT 10SM FEW045 08/02 A2991 Follow KJAX on AV Mobile JACKSONVILLE INTERNATIONAL 904-741-4304
KNIPFAA ID NIP, KNIP 270253Z 29009KT 10SM FEW045 11/02 A2993 RMK AO2 SLP129 T01060022 51013 Follow KNIP on AV Mobile JACKSONVILLE NAVAL AIR STN
KVQQFAA ID VQQ, AWOS-3, KVQQ 270255Z AUTO 27011G16KT 10SM CLR 08/02 A2993 RMK AO2 Follow KVQQ on AV Mobile Jacksonville, Cecil Field Airport 125.275 904-778-6934
KNENFAA ID NEN NOLF WHITEHOUSE FIELD, FL
KX80ICAO ID KX80 Jupiter Inlet Coast Guard Station
KEYWFAA ID EYW, ASOS, KEYW 270253Z AUTO 30016KT 10SM BKN044 20/12 A3002 Follow KEYW on AV Mobile KEY WEST INTERNATIONAL AIRPORT 119.65 305-292-4046
KNQXFAA ID NQX, KNQX 270253Z 30014KT 10SM SCT044 19/11 A3001 RMK AO2 SLP161 T01940106 51010 $ Follow KNQX on AV Mobile KEY WEST NAVAL AIR STATION
K42JFAA ID 42J, AWOS-3, K42J 270255Z AUTO 30009KT 10SM CLR 08/02 A2995 RMK AO1 TSNO Follow K42J on AV Mobile KEYSTONE HEIGHTS 124.275 352-473-8273
KLCQFAA ID LCQ, AWOS-3, KLCQ 270255Z AUTO 30010KT 10SM CLR 07/02 A2995 RMK AO2 Follow KLCQ on AV Mobile LAKE CITY 120.675 386-754-9366
X07FAA ID X07, AWOS-3, K2V5 270330Z AUTO 24003KT 10SM CLR 05/00 A3014 RMK AO2 T00451004 Follow  on AV Mobile LAKE WALES 124.225 863-678-1334
KX81ICAO ID KX81 Lake Worth Inlet
KLALFAA ID LAL, AWOS-3PT, KLAL 270255Z AUTO 29007KT 10SM SCT031 10/07 A2998 RMK AO2 Follow KLAL on AV Mobile Lakeland Regional 118.025 863-834-2030
KLEEFAA ID LEE, ASOS, KLEE 270253Z AUTO 30011KT 10SM CLR 12/06 A2996 RMK AO2 SLP145 T01170061 53016 Follow KLEE on AV Mobile LEESBURG REGIONAL AIRPORT 134.325 352-787-1565
24JFAA ID 24J, AWOS-3, K2V5 270330Z AUTO 24003KT 10SM CLR 05/00 A3014 RMK AO2 T00451004 Follow  on AV Mobile LIVE OAK 118.225 386-362-1731
KX88ICAO ID KX88 Marathon Coast Guard Station
KMTHFAA ID MTH, ASOS, KMTH 270253Z AUTO 28009G18KT 10SM BKN041 BKN049 20/13 A3000 RMK AO2 SLP158 T02000128 51010 Follow KMTH on AV Mobile MARATHON AIRPORT 135.525 305-743-8373
KMKYFAA ID MKY, AWOS-3, KMKY 270255Z AUTO 31010G20KT 10SM BKN041 A2997 RMK AO1 52010 Follow KMKY on AV Mobile MARCO ISLAND 120.075 239-394-8187
KMAIFAA ID MAI, ASOS, KMAI 270253Z AUTO 25003KT 10SM CLR 05/02 A3000 RMK AO2 SLP160 T00500022 50005 Follow KMAI on AV Mobile MARIANNA MUNICIPAL AIRPORT 133.525 850-482-6082
KHRTFAA ID HRT, KHRT 270258Z AUTO 28006KT 10SM CLR 08/M01 A3004 RMK AO2 SLP174 T00831006 51006 RVRNO $ Follow KHRT on AV Mobile Hurlburt Field
KNRBFAA ID NRB, KNRB 270252Z 29009G16KT 10SM FEW045 09/03 A2991 RMK AO2 SLP126 T00940028 51010 $ Follow KNRB on AV Mobile MAYPORT NAVAL AIR FACILITY
KMLBFAA ID MLB, ASOS, KMLB 270253Z 27009KT 10SM CLR 11/07 A2993 Follow KMLB on AV Mobile MELBOURNE INTERNATIONAL 321-723-7403
KCOIFAA ID COI, AWOS-3 Merritt Island, Merritt Island Airport 119.025 321-986-8864
KTNTFAA ID TNT, AWOS-3 MIAMI 119.075 (239) 695-9198
KX87ICAO ID KX87 Miami Beach Coast Guard Station
KAMXICAO ID KAMX Miami Nexrad
KTMBFAA ID TMB, ASOS, KTMB 270253Z 30006KT 10SM SCT047 14/10 A2999 Follow KTMB on AV Mobile KENDALL-TAMIAMI EXEC AIRPORT 305-235-1332
KMIAFAA ID MIA, ASOS, KMIA 270253Z 29009KT 10SM FEW045 17/10 A2998 Follow KMIA on AV Mobile MIAMI INTERNATIONAL AIRPORT 305-870-0235
KOPFFAA ID OPF, KOPF 270253Z AUTO 29010KT 10SM BKN044 17/10 A2997 Follow KOPF on AV Mobile MIAMI OPA LOCKA AIRPORT
KNFJFAA ID NFJ CHOCTAW, WHITING FIELD, NOLF
KNSEFAA ID NSE, KNSE 270256Z 25006KT 10SM CLR 05/01 A3004 RMK AO2 SLP160 T00500011 53001 $ Follow KNSE on AV Mobile MILTON WHITING FIELD (NORTH)
KNDZFAA ID NDZ, KNDZ 270256Z 25003KT 10SM CLR 06/02 A3004 RMK AO2 SLP161 T00610017 53001 $ Follow KNDZ on AV Mobile MILTON WHITING FIELD (SOUTH)
KAPFFAA ID APF, ASOS, KAPF 270253Z 30011G20KT 10SM SCT038 17/09 A2998 Follow KAPF on AV Mobile NAPLES MUNICIPAL AIRPORT 239-643-9886
KRRFICAO ID KRRF New Port Richey, Tampa Bay Executive Airport
KEVBFAA ID EVB, AWOS-3, KEVB 270247Z 27008KT 10SM SKC 09/05 A2993 RMK LAST Follow KEVB on AV Mobile New Smyrna Beach, New Smyrna Beach Municipal Airport 124.625 386-409-4705
KOCFFAA ID OCF, AWOS-3, KOCF 270255Z AUTO 32012G17KT 10SM CLR 09/03 A2997 RMK AO1 52020 Follow KOCF on AV Mobile Ocala, Ocala International Airport-Jim Taylor Field 128.125 352-237-8525
KOBEFAA ID OBE, AWOS-3, KOBE 270255Z AUTO 28004KT 10SM CLR 10/08 A2995 RMK AO2 Follow KOBE on AV Mobile Okeechobee County Airport 118.675 863-467-1148
KORLFAA ID ORL, ASOS, KORL 270253Z AUTO 29010KT 10SM CLR 12/07 A2995 RMK AO2 SLP146 T01170067 53019 Follow KORL on AV Mobile ORLANDO EXECUTIVE AIRPORT 407-658-6753
KMCOFAA ID MCO, ASOS, KMCO 270253Z 28011KT 10SM CLR 12/08 A2995 Follow KMCO on AV Mobile ORLANDO INTERNATIONAL AIRPORT 407-855-5235
KSFBFAA ID SFB, ASOS, KSFB 270253Z 28010KT 10SM CLR 11/06 A2994 Follow KSFB on AV Mobile ORLANDO SANFORD AIRPORT 407-321-9384
KISMFAA ID ISM, AWOS-3, KISM 270245Z 28008KT 10SM SKC 11/09 A2995 RMK LAST Follow KISM on AV Mobile Orlando, Kissimmee Municipal Airport 128.775 407-847-0533
KOMNFAA ID OMN, AWOS-3, KOMN 262350Z 28015KT 10SM SKC 13/04 A2986 RMK LAST Follow KOMN on AV Mobile Ormond Beach, Ormond Beach Municipal Airport 118.475 386-615-7084
28JFAA ID 28J, AWOS-3, K2V5 270330Z AUTO 24003KT 10SM CLR 05/00 A3014 RMK AO2 T00451004 Follow  on AV Mobile PALATKA 119.92 386-312-2212
KXFLFAA ID XFL, AWOS-3, KXFL 132150Z VRB03KT 7SM CLR 21/18 A2999 Follow KXFL on AV Mobile PALM COAST 128.325 386-437-7334
KECPFAA ID ECP, ASOS, KECP 270253Z 00000KT 10SM CLR 07/02 A3002 Follow KECP on AV Mobile PANAMA CITY 119.975 850-235-7857
KPFNICAO ID KPFN, KPFN 030253Z VRB03KT 10SM FEW023 25/23 A2989 Follow KPFN on AV Mobile PANAMA CITY-BAY CTY INTERNATIONAL
KPAMFAA ID PAM, KPAM 270258Z AUTO 33005KT 10SM CLR 09/02 A3002 RMK AO2 SLP169 T00900024 50007 $ Follow KPAM on AV Mobile Tyndall Air Force Base
KPNSFAA ID PNS, ASOS, KPNS 270253Z 26005KT 10SM CLR 08/02 A3004 Follow KPNS on AV Mobile PENSACOLA REGIONAL AIRPORT 850-436-4799
KNPAFAA ID NPA, KNPA 270256Z 27003KT 10SM CLR 07/02 A3004 RMK AO2 SLP175 T00670022 50001 $ Follow KNPA on AV Mobile Pensacola, Naval Air Station
K40JFAA ID 40J, AWOS-3PT, K40J 270255Z AUTO 32006KT 10SM CLR 08/03 A2999 RMK AO2 T00750030 Follow K40J on AV Mobile PERRY-FOLEY AIRPORT 118.375 850-838-3526
FA54FAA ID FA54, Belfort CORAL CREEK
KPCMFAA ID PCM, AWOS-3, KPCM 270255Z AUTO RMK AO2 PWINO Follow KPCM on AV Mobile Plant City, Plant City Municipal Airport 120.025 813-764-8259
KPMPFAA ID PMP, ASOS, KPMP 270253Z AUTO 28009KT 10SM CLR 16/08 A2996 RMK AO2 SLP146 T01610083 51017 Follow KPMP on AV Mobile POMPANO BEACH AIRPARK 954-783-3720
K1J3ICAO ID K1J3 Ponce De Leon Inlet
KPGDFAA ID PGD, ASOS, KPGD 270253Z AUTO 31011KT 10SM CLR 14/08 A2999 RMK AO2 SLP157 T01440083 51013 Follow KPGD on AV Mobile PUNTA GORDA CHARLOTTE COUNTY 135.675 941-639-0076
K1J5ICAO ID K1J5 Santa Rosa Coast Guard Station
KSRQFAA ID SRQ, ASOS, KSRQ 270253Z 31014G21KT 10SM FEW037 FEW044 15/08 A2997 Follow KSRQ on AV Mobile SARASOTA/BRADENTON INTERNATIONAL . 124.375 941-359-0117
KSEFFAA ID SEF, AWOS-3 SEBRING 119.475 863-655-6424
KSGJFAA ID SGJ, AWOS-3, KSGJ 270258Z AUTO 30011G16KT 10SM CLR 09/03 A2993 RMK AO2 SLP133 T00940033 52014 Follow KSGJ on AV Mobile St. Augustine, St. Augustine Airport 904-824-7084
KPIEFAA ID PIE, ASOS, KPIE 270253Z 31016KT 10SM SCT034 14/08 A2999 Follow KPIE on AV Mobile ST PETERSBURG/CLEARWATER 727-531-3456
KSPGFAA ID SPG, ASOS, KSPG 270253Z AUTO 32011G20KT 10SM FEW037 15/09 A2996 RMK AO2 SLP146 T01500089 51011 Follow KSPG on AV Mobile ST PETERSBURG WHITTED AIRPORT 118.875 727-821-4334
KSUAFAA ID SUA, AWOS-3, KSUA 270255Z AUTO 27005KT 10SM CLR 12/08 A2994 RMK AO2 Follow KSUA on AV Mobile Stuart, Witham Field Airport 772-692-7399
KTLHFAA ID TLH, ASOS, KTLH 270253Z 28003KT 10SM CLR 07/01 A3000 Follow KTLH on AV Mobile TALLAHASSEE REGIONAL AIRPORT 850-576-3665
KTBWICAO ID KTBW Tampa Bay Area
KMCFFAA ID MCF, KMCF 270258Z AUTO 33014G21KT 10SM CLR 14/10 A2998 RMK AO2 SLP155 T01400097 52012 Follow KMCF on AV Mobile Macdill Air Force Base, Fl.
KTPAFAA ID TPA, ASOS, KTPA 270253Z 31014G19KT 10SM FEW035 13/07 A2999 Follow KTPA on AV Mobile TAMPA INTERNATIONAL AIRPORT 813-873-7228
KTPFFAA ID TPF, AWOS-3, KTPF 270255Z AUTO 33006G15KT 10SM SCT035 15/09 A2999 RMK AO2 Follow KTPF on AV Mobile Tampa, Peter O Knight Airport 118.925 813-251-6824
KVDFFAA ID VDF, AWOS-3, KVDF 270255Z AUTO 32006KT 10SM SCT035 14/07 A2999 RMK AO2 Follow KVDF on AV Mobile Tampa, Vandenberg Airport 121.125 813-630-0924
KVLGICAO ID KVLG The Villages
KVVGICAO ID KVVG, KVVG 270255Z AUTO 29009KT 7SM 11/05 A2987 RMK A01 Follow KVVG on AV Mobile The Villages
KX68ICAO ID KX68 Titusville, NASA Shuttle Landing Facility
KTIXFAA ID TIX, KTIX 262347Z 29010G15KT 7SM SKC 13/06 A2988 Follow KTIX on AV Mobile Titusville
KX21FAA ID X21, AWOS-3 Titusville, Arthur Dunn Air Park 119.725 321-385-0383
KTTSFAA ID TTS, KTTS 270258Z AUTO 29008KT 10SM CLR 11/07 A2991 RMK AO2 SLP132 T01140067 51016 Follow KTTS on AV Mobile Titusville, NASA Shuttle Landing Facility
KVPSFAA ID VPS, KVPS 270257Z 28004KT 10SM CLR 06/02 A3003 RMK AO2A SLP174 T00600016 50004 $ Follow KVPS on AV Mobile Valparaiso / Eglin Air Force Base
KVNCFAA ID VNC, AWOS-3, KVNC 270255Z AUTO 31017G25KT 10SM BKN035 17/09 A2999 RMK AO2 TSNO Follow KVNC on AV Mobile VENICE 119.275
KX90ICAO ID KX90 Venice Long Range Navigation
KVRBFAA ID VRB, ASOS, KVRB 270253Z 28008KT 10SM CLR 11/08 A2994 Follow KVRB on AV Mobile VERO BEACH MUNICIPAL AIRPORT 772-978-9535
F45FAA ID F45, AWOS-3, K2V5 270330Z AUTO 24003KT 10SM CLR 05/00 A3014 RMK AO2 T00451004 Follow  on AV Mobile WEST PALM BEACH 119.975 561-630-6932
KLNAFAA ID LNA, AWOS-3 WEST PALM BEACH 119.925 561-964-0308
KPBIFAA ID PBI, ASOS, KPBI 270253Z 28010KT 10SM CLR 14/10 A2993 Follow KPBI on AV Mobile PALM BEACH INTERNATIONAL 123.75 561-683-2548
FD38FAA ID FD38, Belfort WELLINGTON AERO CLUB
X60FAA ID X60, AWOS-3, K2V5 270330Z AUTO 24003KT 10SM CLR 05/00 A3014 RMK AO2 T00451004 Follow  on AV Mobile WILLISTON 118.425 352-528-9949
KGIFFAA ID GIF, ASOS, KGIF 270253Z AUTO 29008KT 10SM CLR 12/08 A2997 RMK AO2 SLP148 T01220078 53014 Follow KGIF on AV Mobile WINTER HAVENS GILBERT AIRPORT 133.675 863-956-2097
KZPHFAA ID ZPH, ASOS, KZPH 270255Z AUTO 28005KT 10SM CLR 10/07 A2999 RMK AO2 Follow KZPH on AV Mobile ZEPHYRHILLS 118.975 813-780-0031

Click on the AV Mobile icon AV Mobile icon by any station to follow that AWOS feed on AirportView.net Mobile.

Garmin aera 796 $1999 at Avionics Specialists LLC
Bose A20 Aviation Headsets $995 at Avionics Specialists LLC